Terminal Aerodrome Forecast
Issued by NWS Sterling, VA

Home | Current Version | Previous Version | Text Only | Print | Product List | Glossary On
Versions: 1 2 3 4 5 6 7 8 9 10 11 12 13
000
FTUS41 KLWX 292339
TAFCHO
TAF
KCHO 292339Z 3000/3024 18004KT P6SM BKN250
     FM300900 VRB03KT 3SM BR FEW090
     FM301200 20005KT P6SM SCT070
     FM301800 19007KT P6SM BKN060=

USA.gov is the U.S. government's official web portal to all federal, state and local government web resources and services.